Terminal Aerodrome Forecast
Issued by NWS

Home | Current Version | Previous Version | Text Only | Print | Product List | Glossary On
Versions: 1 2 3 4 5 6 7 8 9 10 11
000
FTUS46 KSGX 271720
TAFONT
TAF
KONT 271720Z 2718/2824 VRB06KT P6SM FEW015 BKN025
      TEMPO 2718/2720 5SM HZ
     FM272100 25010G18KT P6SM FEW020
     FM280600 24008KT P6SM VCSH BKN020 BKN050
     FM281000 23010G18KT P6SM VCSH BKN020 BKN050
     FM281500 23010G18KT P6SM VCSH BKN030 BKN050=

USA.gov is the U.S. government's official web portal to all federal, state and local government web resources and services.